Time;durP1;ratioP1;P1;durP2;ratioP2;P2;SDS_P1;SDS_P2;PMS_P1;PMS_P2;Temp;Humidity;BMP_temperature;BMP_pressure;BME280_temperature;BME280_humidity;BME280_pressure;Samples;Min_cycle;Max_cycle;Signal;HPM_P1;HPM_P2
2023/04/27 00:02:19;;;;;;;0.00;0.00;;;;;;;4.25;100.00;102112.16;10372759;28;20041;-80
2023/04/27 00:07:21;;;;;;;0.65;0.40;;;;;;;5.03;100.00;102108.16;10392062;28;20409;-80
2023/04/27 00:12:22;;;;;;;0.30;0.30;;;;;;;4.50;100.00;102115.59;10391984;28;20073;-81
2023/04/27 00:17:24;;;;;;;0.00;0.00;;;;;;;3.97;100.00;102119.53;10376036;28;20055;-80
2023/04/27 00:22:26;;;;;;;0.52;0.52;;;;;;;4.48;100.00;102118.00;10379849;28;20100;-81
2023/04/27 00:27:27;;;;;;;0.00;0.00;;;;;;;4.67;100.00;102122.72;10384855;28;20088;-81
2023/04/27 00:32:29;;;;;;;0.13;0.13;;;;;;;3.95;100.00;102132.13;10372354;28;20141;-81
2023/04/27 00:37:30;;;;;;;1.70;1.30;;;;;;;4.45;100.00;102126.34;10377327;28;20117;-80
2023/04/27 00:42:33;;;;;;;0.00;0.00;;;;;;;4.47;100.00;102123.00;10367237;28;20124;-80
2023/04/27 00:47:34;;;;;;;0.55;0.20;;;;;;;4.28;100.00;102139.59;10390261;28;20037;-80
2023/04/27 00:52:36;;;;;;;0.28;0.25;;;;;;;4.48;100.00;102132.44;10382014;28;20519;-80
2023/04/27 00:57:38;;;;;;;0.00;0.00;;;;;;;4.54;100.00;102130.31;10354811;28;20516;-80
2023/04/27 01:02:41;;;;;;;0.00;0.00;;;;;;;4.23;100.00;102133.25;10363481;28;20049;-80
2023/04/27 01:07:42;;;;;;;0.40;0.28;;;;;;;4.42;100.00;102131.25;10367848;28;20088;-80
2023/04/27 01:12:44;;;;;;;0.13;0.10;;;;;;;4.40;100.00;102124.22;10367601;28;20409;-80
2023/04/27 01:17:46;;;;;;;1.65;0.57;;;;;;;4.16;100.00;102133.59;10369082;28;20045;-80
2023/04/27 01:22:47;;;;;;;0.00;0.00;;;;;;;4.21;100.00;102142.44;10363655;28;20152;-80
2023/04/27 01:27:49;;;;;;;0.00;0.00;;;;;;;4.10;100.00;102142.56;10360349;28;20113;-81
2023/04/27 01:32:51;;;;;;;0.00;0.00;;;;;;;3.93;100.00;102137.91;10374478;28;20053;-81
2023/04/27 01:37:53;;;;;;;0.00;0.00;;;;;;;3.81;100.00;102143.91;10377170;28;20124;-80
2023/04/27 01:42:54;;;;;;;0.10;0.10;;;;;;;4.36;100.00;102135.88;10384734;28;20077;-80
2023/04/27 01:47:56;;;;;;;0.05;0.05;;;;;;;4.23;100.00;102133.25;10400146;28;20045;-80
2023/04/27 01:52:58;;;;;;;0.00;0.00;;;;;;;4.25;100.00;102136.81;10365969;28;20058;-80
2023/04/27 01:57:59;;;;;;;0.00;0.00;;;;;;;3.95;100.00;102139.78;10381056;28;20128;-81
2023/04/27 02:03:01;;;;;;;0.22;0.22;;;;;;;3.75;100.00;102143.47;10370417;28;20054;-79
2023/04/27 02:08:03;;;;;;;0.00;0.00;;;;;;;2.93;100.00;102141.53;10360824;28;20053;-79
2023/04/27 02:13:04;;;;;;;0.70;0.35;;;;;;;2.56;100.00;102142.09;10390014;28;20548;-80
2023/04/27 02:18:06;;;;;;;0.00;0.00;;;;;;;2.79;100.00;102141.34;10370174;28;20527;-79
2023/04/27 02:23:08;;;;;;;0.00;0.00;;;;;;;3.74;100.00;102141.69;10371030;28;20547;-80
2023/04/27 02:28:09;;;;;;;0.10;0.10;;;;;;;3.63;100.00;102133.25;10364726;28;20042;-80
2023/04/27 02:33:11;;;;;;;0.00;0.00;;;;;;;3.18;100.00;102127.34;10381210;28;20644;-81
2023/04/27 02:38:13;;;;;;;0.10;0.10;;;;;;;3.46;100.00;102129.41;10380919;28;20064;-81
2023/04/27 02:43:16;;;;;;;0.00;0.00;;;;;;;3.56;100.00;102125.00;10376351;28;20064;-80
2023/04/27 02:48:17;;;;;;;0.15;0.15;;;;;;;3.49;100.00;102119.47;10386746;28;20057;-80
2023/04/27 02:53:19;;;;;;;0.00;0.00;;;;;;;3.56;100.00;102125.00;10395178;28;20072;-81
2023/04/27 02:58:21;;;;;;;0.05;0.05;;;;;;;2.83;100.00;102134.88;10361827;28;20500;-80
2023/04/27 03:03:23;;;;;;;0.43;0.40;;;;;;;2.50;100.00;102131.47;10394238;28;20128;-81
2023/04/27 03:08:25;;;;;;;0.30;0.22;;;;;;;2.78;100.00;102121.78;10355499;28;20464;-80
2023/04/27 03:13:27;;;;;;;0.05;0.05;;;;;;;2.67;100.00;102120.03;10368493;28;20092;-80
2023/04/27 03:18:28;;;;;;;0.10;0.10;;;;;;;3.07;100.00;102128.22;10376535;28;20046;-80
2023/04/27 03:23:30;;;;;;;0.50;0.50;;;;;;;3.16;100.00;102128.88;10382092;28;20144;-80
2023/04/27 03:28:31;;;;;;;0.30;0.30;;;;;;;2.39;100.00;102133.16;10365056;28;20076;-80
2023/04/27 03:33:33;;;;;;;0.00;0.00;;;;;;;2.16;100.00;102139.84;10380472;28;20081;-80
2023/04/27 03:38:35;;;;;;;0.00;0.00;;;;;;;2.49;100.00;102150.94;10360932;28;20461;-81
2023/04/27 03:43:37;;;;;;;0.10;0.10;;;;;;;3.24;100.00;102133.69;10374781;28;20064;-81
2023/04/27 03:48:38;;;;;;;0.85;0.28;;;;;;;2.10;100.00;102141.00;10369458;28;20077;-80
2023/04/27 03:53:41;;;;;;;0.28;0.08;;;;;;;1.78;100.00;102150.34;10370866;28;20688;-81
2023/04/27 03:58:42;;;;;;;0.00;0.00;;;;;;;2.67;100.00;102150.59;10376205;28;20081;-80
2023/04/27 04:03:50;;;;;;;0.47;0.30;;;;;;;3.04;100.00;102147.47;10382809;28;20096;-79
2023/04/27 04:08:52;;;;;;;0.00;0.00;;;;;;;2.50;100.00;102162.84;10378280;28;20087;-80
2023/04/27 04:13:54;;;;;;;0.10;0.10;;;;;;;2.70;100.00;102166.09;10353329;28;20057;-80
2023/04/27 04:18:56;;;;;;;0.00;0.00;;;;;;;2.35;100.00;102171.81;10383185;28;20045;-81
2023/04/27 04:23:58;;;;;;;0.00;0.00;;;;;;;2.25;100.00;102169.31;10350934;28;20048;-80
2023/04/27 04:28:59;;;;;;;0.45;0.45;;;;;;;2.93;100.00;102169.56;10365995;28;20096;-79
2023/04/27 04:34:02;;;;;;;0.10;0.10;;;;;;;2.68;100.00;102173.59;10372709;28;20152;-80
2023/04/27 04:39:04;;;;;;;1.08;0.50;;;;;;;2.80;100.00;102170.25;10395486;28;20053;-80
2023/04/27 04:44:06;;;;;;;0.00;0.00;;;;;;;3.25;100.00;102163.47;10379473;28;20049;-80
2023/04/27 04:49:08;;;;;;;0.20;0.20;;;;;;;3.35;100.00;102160.84;10367862;28;20038;-80
2023/04/27 04:54:10;;;;;;;0.00;0.00;;;;;;;3.21;100.00;102161.47;10377923;28;20049;-80
2023/04/27 04:59:11;;;;;;;0.05;0.05;;;;;;;3.03;100.00;102166.94;10382283;28;20049;-81
2023/04/27 05:04:13;;;;;;;0.15;0.15;;;;;;;3.58;100.00;102174.44;10380679;28;20053;-80
2023/04/27 05:09:15;;;;;;;0.00;0.00;;;;;;;4.05;100.00;102174.53;10384931;28;20038;-81
2023/04/27 05:14:17;;;;;;;0.20;0.20;;;;;;;3.59;100.00;102174.53;10372010;28;20061;-80
2023/04/27 05:19:19;;;;;;;0.00;0.00;;;;;;;3.80;100.00;102175.25;10357948;28;20255;-81
2023/04/27 05:24:21;;;;;;;0.03;0.03;;;;;;;3.98;100.00;102177.41;10392904;28;20084;-80
2023/04/27 05:29:22;;;;;;;0.10;0.10;;;;;;;4.52;100.00;102170.16;10372629;28;20044;-80
2023/04/27 05:34:24;;;;;;;1.08;0.47;;;;;;;4.10;100.00;102182.47;10378659;28;20132;-80
2023/04/27 05:39:26;;;;;;;0.47;0.45;;;;;;;4.78;100.00;102176.22;10381500;28;20092;-80
2023/04/27 05:44:28;;;;;;;0.45;0.45;;;;;;;5.51;100.00;102169.25;10375388;28;20044;-80
2023/04/27 05:49:29;;;;;;;0.00;0.00;;;;;;;5.92;100.00;102171.09;10386023;28;20073;-82
2023/04/27 05:54:31;;;;;;;0.22;0.22;;;;;;;6.02;100.00;102170.94;10371202;28;20066;-83
2023/04/27 05:59:32;;;;;;;0.00;0.00;;;;;;;6.28;100.00;102174.31;10409742;28;20052;-81
2023/04/27 06:04:35;;;;;;;0.25;0.17;;;;;;;6.46;100.00;102186.50;10380888;28;20048;-81
2023/04/27 06:09:37;;;;;;;0.00;0.00;;;;;;;7.05;100.00;102179.84;10376041;28;20046;-81
2023/04/27 06:14:39;;;;;;;0.10;0.10;;;;;;;7.09;100.00;102169.88;10376605;28;20136;-81
2023/04/27 06:19:40;;;;;;;0.00;0.00;;;;;;;7.44;100.00;102183.06;10400770;28;20408;-81
2023/04/27 06:24:42;;;;;;;0.30;0.20;;;;;;;7.75;100.00;102165.19;10388373;28;20045;-80
2023/04/27 06:29:43;;;;;;;1.23;1.13;;;;;;;7.97;100.00;102165.56;10362003;28;20045;-81
2023/04/27 06:34:46;;;;;;;0.00;0.00;;;;;;;8.56;100.00;102156.91;10398618;28;20037;-81
2023/04/27 06:39:47;;;;;;;19.27;0.70;;;;;;;9.07;100.00;102150.97;10401862;28;20045;-81
2023/04/27 06:44:52;;;;;;;3.60;0.93;;;;;;;8.79;100.00;102147.84;10369373;28;20132;-82
2023/04/27 06:49:54;;;;;;;0.05;0.05;;;;;;;9.32;100.00;102150.56;10376798;28;20489;-81
2023/04/27 06:54:55;;;;;;;0.32;0.20;;;;;;;9.70;100.00;102143.88;10361958;28;20592;-83
2023/04/27 06:59:57;;;;;;;1.17;0.45;;;;;;;10.50;100.00;102151.09;10397997;28;20125;-81
2023/04/27 07:04:58;;;;;;;0.15;0.10;;;;;;;10.48;100.00;102144.19;10383419;28;20073;-81
2023/04/27 07:10:00;;;;;;;0.57;0.30;;;;;;;10.64;100.00;102144.88;10366576;28;20512;-84
2023/04/27 07:15:03;;;;;;;0.10;0.10;;;;;;;11.11;100.00;102140.97;10355494;28;20046;-82
2023/04/27 07:20:05;;;;;;;1.02;0.85;;;;;;;11.02;100.00;102153.47;10356768;28;20038;-81
2023/04/27 07:25:07;;;;;;;0.00;0.00;;;;;;;11.77;100.00;102146.28;10341813;28;20427;-82
2023/04/27 07:30:12;;;;;;;0.05;0.05;;;;;;;11.96;100.00;102153.94;10332742;28;20047;-83
2023/04/27 07:35:14;;;;;;;0.05;0.03;;;;;;;13.18;100.00;102136.97;10358538;28;20046;-82
2023/04/27 07:40:15;;;;;;;0.73;0.28;;;;;;;12.72;100.00;102148.22;10364093;28;20045;-81
2023/04/27 07:45:17;;;;;;;0.00;0.00;;;;;;;12.50;99.31;102157.78;10384634;28;20119;-82
2023/04/27 07:50:23;;;;;;;0.80;0.25;;;;;;;12.91;97.99;102160.13;10352195;28;20149;-82
2023/04/27 07:55:25;;;;;;;0.10;0.10;;;;;;;13.50;95.30;102157.94;10358743;28;20056;-82
2023/04/27 08:00:27;;;;;;;0.15;0.10;;;;;;;12.95;93.93;102165.47;10375451;28;20041;-83
2023/04/27 08:05:28;;;;;;;0.00;0.00;;;;;;;14.06;91.59;102162.31;10379698;28;20677;-82
2023/04/27 08:10:30;;;;;;;0.35;0.28;;;;;;;14.48;92.07;102148.94;10355704;28;20049;-81
2023/04/27 08:15:32;;;;;;;0.55;0.55;;;;;;;12.70;91.23;102167.16;10352579;28;20072;-83
2023/04/27 08:20:33;;;;;;;0.15;0.10;;;;;;;13.38;85.03;102157.47;10355598;28;20124;-81
2023/04/27 08:25:35;;;;;;;0.15;0.10;;;;;;;13.24;83.52;102160.47;10379906;28;20136;-82
2023/04/27 08:30:37;;;;;;;0.00;0.00;;;;;;;13.74;76.51;102146.63;10373449;28;20071;-81
2023/04/27 08:35:38;;;;;;;0.10;0.10;;;;;;;15.41;81.75;102150.66;10363841;28;20111;-81
2023/04/27 08:40:44;;;;;;;0.10;0.10;;;;;;;16.38;80.85;102139.97;10377567;28;20112;-80
2023/04/27 08:45:49;;;;;;;0.00;0.00;;;;;;;15.43;74.54;102143.75;10355714;28;20111;-81
2023/04/27 08:50:51;;;;;;;0.10;0.10;;;;;;;14.81;74.14;102140.41;10362601;28;20550;-80
2023/04/27 08:55:55;;;;;;;0.15;0.10;;;;;;;15.34;72.03;102134.88;10366491;28;20072;-80
2023/04/27 09:00:58;;;;;;;0.10;0.10;;;;;;;15.10;70.69;102140.31;10379199;28;20051;-81
2023/04/27 09:06:01;;;;;;;0.00;0.00;;;;;;;15.51;75.89;102137.94;10364357;28;20707;-82
2023/04/27 09:11:06;;;;;;;0.05;0.05;;;;;;;14.84;70.42;102135.31;10393985;28;20044;-81
2023/04/27 09:16:08;;;;;;;0.22;0.22;;;;;;;15.82;68.73;102123.06;10370134;28;20038;-82
2023/04/27 09:21:09;;;;;;;0.17;0.17;;;;;;;16.09;67.97;102127.22;10399145;28;20153;-81
2023/04/27 09:26:20;;;;;;;1.17;0.20;;;;;;;16.12;65.89;102127.25;10376414;28;20140;-81
2023/04/27 09:31:33;;;;;;;0.20;0.20;;;;;;;16.20;66.21;102127.44;10370685;28;20069;-81
2023/04/27 09:36:35;;;;;;;0.00;0.00;;;;;;;16.16;63.00;102123.91;10383546;28;20050;-80
2023/04/27 09:41:37;;;;;;;0.10;0.10;;;;;;;16.46;58.08;102122.81;10378418;28;20038;-80
2023/04/27 09:46:40;;;;;;;0.10;0.10;;;;;;;15.22;62.83;102125.09;10377900;28;20048;-79
2023/04/27 09:51:41;;;;;;;0.05;0.05;;;;;;;16.88;63.15;102112.34;10382625;28;20496;-81
2023/04/27 09:57:37;;;;;;;0.00;0.00;;;;;;;16.98;58.27;102103.91;10388235;28;20124;-82
2023/04/27 10:03:04;;;;;;;0.13;0.13;;;;;;;16.62;52.88;102104.91;10253155;28;20050;-80
2023/04/27 10:08:06;;;;;;;0.45;0.25;;;;;;;16.87;54.88;102102.75;10371006;28;20101;-81
2023/04/27 10:13:07;;;;;;;0.32;0.15;;;;;;;16.04;60.07;102097.63;10366572;28;20069;-80
2023/04/27 10:18:10;;;;;;;0.15;0.10;;;;;;;16.32;55.83;102104.28;10371742;28;20126;-82
2023/04/27 10:23:22;;;;;;;0.17;0.10;;;;;;;16.03;54.45;102093.28;10373140;28;20129;-81
2023/04/27 10:28:23;;;;;;;0.20;0.20;;;;;;;17.19;58.54;102086.91;10355864;28;20405;-80
2023/04/27 10:33:25;;;;;;;0.28;0.10;;;;;;;16.84;53.75;102080.16;10360972;28;20129;-80
2023/04/27 10:38:29;;;;;;;0.40;0.10;;;;;;;17.48;56.46;102081.28;10366950;28;20416;-80
2023/04/27 10:43:33;;;;;;;0.05;0.05;;;;;;;17.33;49.61;102077.59;10374076;28;20060;-81
2023/04/27 10:48:35;;;;;;;0.00;0.00;;;;;;;17.47;54.45;102079.53;10357098;28;20125;-80
2023/04/27 10:53:36;;;;;;;0.20;0.20;;;;;;;18.46;59.70;102079.25;10344383;28;20042;-81
2023/04/27 10:58:38;;;;;;;0.10;0.10;;;;;;;17.31;55.12;102079.31;10370671;28;20052;-80
2023/04/27 11:03:57;;;;;;;1.17;1.05;;;;;;;15.95;57.58;102076.63;10358907;28;20057;-81
2023/04/27 11:09:00;;;;;;;;;;;;;;;15.98;63.25;102071.47;10357796;28;20497;-81
2023/04/27 11:14:02;;;;;;;0.30;0.20;;;;;;;16.15;53.31;102067.53;10373207;28;20008;-82
2023/04/27 11:19:05;;;;;;;0.10;0.10;;;;;;;17.21;54.35;102053.94;10365001;28;20045;-82
2023/04/27 11:24:08;;;;;;;0.63;0.60;;;;;;;17.88;55.34;102061.06;10346239;28;20050;-82
2023/04/27 11:29:12;;;;;;;0.35;0.20;;;;;;;18.30;59.89;102054.69;10374824;28;20054;-81
2023/04/27 11:34:22;;;;;;;0.00;0.00;;;;;;;17.77;58.13;102053.94;10362971;28;20429;-82
2023/04/27 11:39:27;;;;;;;0.40;0.20;;;;;;;17.05;58.78;102051.09;10362538;28;20048;-82
2023/04/27 11:44:28;;;;;;;0.00;0.00;;;;;;;17.73;51.19;102036.53;10366064;28;20622;-82
2023/04/27 11:49:30;;;;;;;0.10;0.10;;;;;;;16.72;55.56;102026.16;10363129;28;20341;-81
2023/04/27 11:54:31;;;;;;;0.68;0.40;;;;;;;18.62;54.16;102029.78;10365389;28;20041;-81
2023/04/27 11:59:33;;;;;;;0.10;0.10;;;;;;;18.11;48.21;102017.06;10368777;28;20064;-82
2023/04/27 12:04:34;;;;;;;0.73;0.45;;;;;;;16.74;59.08;102014.06;10370046;28;20041;-83
2023/04/27 12:09:36;;;;;;;0.40;0.10;;;;;;;17.48;54.62;102018.75;10369375;28;20508;-81
2023/04/27 12:14:38;;;;;;;0.13;0.00;;;;;;;17.55;48.70;102018.00;10360591;28;20558;-81
2023/04/27 12:19:39;;;;;;;0.00;0.00;;;;;;;17.11;51.55;102019.94;10344530;28;20478;-83
2023/04/27 12:24:40;;;;;;;0.17;0.15;;;;;;;17.91;55.36;102014.16;10360764;28;20710;-82
2023/04/27 12:29:42;;;;;;;0.57;0.43;;;;;;;17.68;51.36;102006.94;10365804;28;20052;-81
2023/04/27 12:34:43;;;;;;;0.25;0.17;;;;;;;15.13;48.73;102013.22;10363253;28;20088;-82
2023/04/27 12:39:45;;;;;;;0.03;0.00;;;;;;;19.09;52.32;101989.38;10363646;28;20129;-82
2023/04/27 12:44:46;;;;;;;0.38;0.20;;;;;;;18.01;53.70;102005.66;10358848;28;20120;-82
2023/04/27 12:49:48;;;;;;;1.45;0.88;;;;;;;16.87;53.78;102003.88;10354036;28;20064;-81
2023/04/27 12:54:56;;;;;;;0.03;0.03;;;;;;;19.18;53.36;101994.66;10328172;28;20528;-81
2023/04/27 12:59:57;;;;;;;0.30;0.22;;;;;;;19.05;45.21;101983.25;10331434;28;20121;-82
2023/04/27 13:05:06;;;;;;;0.95;0.70;;;;;;;18.69;50.72;101980.31;10356010;28;20073;-82
2023/04/27 13:10:08;;;;;;;0.20;0.20;;;;;;;18.74;53.22;101971.63;10343103;28;20136;-81
2023/04/27 13:15:10;;;;;;;1.25;0.73;;;;;;;18.47;49.14;101965.28;10352023;28;20050;-81
2023/04/27 13:20:11;;;;;;;0.10;0.10;;;;;;;18.51;47.60;101969.66;10341872;28;20092;-82
2023/04/27 13:25:15;;;;;;;0.08;0.08;;;;;;;18.23;47.44;101964.16;10351992;28;20052;-82
2023/04/27 13:30:16;;;;;;;0.00;0.00;;;;;;;18.94;47.50;101958.78;10349466;28;20044;-81
2023/04/27 13:35:18;;;;;;;0.55;0.20;;;;;;;17.33;50.90;101970.78;10344544;28;20070;-81
2023/04/27 13:40:20;;;;;;;2.63;1.55;;;;;;;17.83;47.14;101963.69;10348562;28;20042;-82
2023/04/27 13:45:22;;;;;;;0.10;0.10;;;;;;;18.13;50.50;101975.38;10378811;28;20277;-81
2023/04/27 13:50:24;;;;;;;0.10;0.10;;;;;;;17.60;45.76;101961.66;10362674;28;20096;-81
2023/04/27 13:55:25;;;;;;;1.20;0.73;;;;;;;17.02;49.28;101953.84;10370248;28;20486;-80
2023/04/27 14:00:30;;;;;;;0.47;0.22;;;;;;;17.64;48.52;101939.97;10355082;28;20370;-82
2023/04/27 14:05:31;;;;;;;0.00;0.00;;;;;;;18.17;49.13;101938.88;10369021;28;20046;-85
2023/04/27 14:10:35;;;;;;;0.30;0.20;;;;;;;17.36;49.50;101929.19;10355239;28;20046;-84
2023/04/27 14:15:37;;;;;;;0.10;0.10;;;;;;;17.57;45.00;101930.31;10383557;28;20497;-85
2023/04/27 14:20:41;;;;;;;0.30;0.10;;;;;;;16.84;53.41;101921.41;10358230;28;20104;-86
2023/04/27 14:25:43;;;;;;;0.15;0.15;;;;;;;15.54;58.84;101938.00;10365766;28;20080;-86
2023/04/27 14:30:44;;;;;;;0.20;0.10;;;;;;;16.60;53.40;101921.88;10357372;28;20041;-84
2023/04/27 14:35:46;;;;;;;0.52;0.28;;;;;;;16.74;54.08;101924.72;10372733;28;20516;-86
2023/04/27 14:40:47;;;;;;;0.20;0.20;;;;;;;17.13;53.08;101910.59;10351357;28;20800;-81
2023/04/27 14:45:49;;;;;;;0.35;0.20;;;;;;;17.78;50.33;101903.66;10379390;28;20054;-79
2023/04/27 14:50:57;;;;;;;0.10;0.10;;;;;;;17.12;53.31;101886.31;10358579;28;20124;-80
2023/04/27 14:55:59;;;;;;;0.00;0.00;;;;;;;15.94;51.52;101898.16;10356727;28;20507;-79
2023/04/27 15:01:00;;;;;;;0.03;0.03;;;;;;;16.62;49.44;101883.78;10354310;28;20077;-84
2023/04/27 15:06:04;;;;;;;0.30;0.20;;;;;;;16.73;57.26;101878.75;10352530;28;20050;-82
2023/04/27 15:11:05;;;;;;;0.80;0.63;;;;;;;16.75;55.32;101879.66;10354036;28;20519;-80
2023/04/27 15:16:07;;;;;;;0.57;0.30;;;;;;;16.06;50.91;101893.19;10363932;28;20154;-81
2023/04/27 15:21:08;;;;;;;0.55;0.38;;;;;;;16.25;51.99;101893.53;10374576;28;20095;-80
2023/04/27 15:26:10;;;;;;;1.40;0.30;;;;;;;16.31;52.98;101885.84;10372285;28;20137;-81
2023/04/27 15:31:11;;;;;;;0.75;0.65;;;;;;;16.40;54.95;101870.41;10369210;28;20120;-81
2023/04/27 15:36:13;;;;;;;1.10;0.63;;;;;;;15.72;53.01;101858.72;10351653;28;20041;-81
2023/04/27 15:41:14;;;;;;;0.00;0.00;;;;;;;16.29;56.44;101869.31;10362245;28;20095;-80
2023/04/27 15:46:16;;;;;;;0.00;0.00;;;;;;;16.15;58.52;101856.97;10362685;28;20065;-80
2023/04/27 15:51:18;;;;;;;0.85;0.40;;;;;;;15.31;53.86;101857.00;10348880;28;20042;-81
2023/04/27 15:56:20;;;;;;;1.17;0.77;;;;;;;15.21;58.19;101850.75;10365194;28;20100;-80
2023/04/27 16:01:22;;;;;;;0.40;0.40;;;;;;;15.67;53.70;101853.44;10368482;28;20431;-79
2023/04/27 16:06:31;;;;;;;0.10;0.10;;;;;;;15.78;53.28;101840.66;10347156;28;20054;-80
2023/04/27 16:11:33;;;;;;;;;;;;;;;15.46;56.25;101830.47;10353696;28;20045;-80
2023/04/27 16:16:35;;;;;;;0.00;0.00;;;;;;;16.11;56.55;101828.28;10345358;28;19928;-80
2023/04/27 16:21:36;;;;;;;0.15;0.10;;;;;;;15.91;54.78;101826.19;10357925;28;20042;-80
2023/04/27 16:26:38;;;;;;;0.25;0.13;;;;;;;15.52;56.80;101828.03;10344694;28;20056;-79
2023/04/27 16:31:41;;;;;;;0.38;0.22;;;;;;;15.14;56.94;101824.59;10350669;28;20140;-79
2023/04/27 16:36:43;;;;;;;0.73;0.63;;;;;;;15.04;54.37;101820.94;10356301;28;20061;-80
2023/04/27 16:41:44;;;;;;;0.28;0.28;;;;;;;15.00;54.13;101811.34;10348797;28;20501;-81
2023/04/27 16:46:47;;;;;;;0.17;0.10;;;;;;;15.01;57.20;101807.88;10369411;28;20134;-81
2023/04/27 16:51:50;;;;;;;13.60;0.85;;;;;;;14.82;58.75;101802.31;10356502;28;20056;-82
2023/04/27 16:56:51;;;;;;;0.57;0.40;;;;;;;15.21;58.92;101795.34;10363590;28;20103;-81
2023/04/27 17:01:55;;;;;;;0.52;0.40;;;;;;;15.20;60.00;101788.41;10350879;28;20065;-80
2023/04/27 17:06:57;;;;;;;0.10;0.10;;;;;;;14.98;59.34;101781.91;10381626;28;20092;-80
2023/04/27 17:11:58;;;;;;;0.40;0.40;;;;;;;14.78;59.36;101774.53;10344958;28;20056;-80
2023/04/27 17:17:00;;;;;;;0.20;0.20;;;;;;;14.43;56.85;101771.97;10370511;28;20100;-80
2023/04/27 17:22:02;;;;;;;0.10;0.10;;;;;;;14.26;58.87;101762.06;10366335;28;20042;-81
2023/04/27 17:27:04;;;;;;;1.13;0.30;;;;;;;14.48;61.43;101749.63;10383262;28;20045;-80
2023/04/27 17:32:05;;;;;;;0.35;0.30;;;;;;;14.21;63.81;101735.16;10366672;28;20435;-80
2023/04/27 17:37:07;;;;;;;0.40;0.10;;;;;;;14.25;63.45;101737.00;10362506;28;20432;-82
2023/04/27 17:42:10;;;;;;;0.17;0.13;;;;;;;14.07;64.58;101747.78;10373195;28;20132;-81
2023/04/27 17:47:13;;;;;;;0.57;0.25;;;;;;;13.97;63.44;101738.03;10386973;28;20046;-81
2023/04/27 17:52:14;;;;;;;0.00;0.00;;;;;;;13.94;66.59;101725.88;10384728;28;20046;-82
2023/04/27 17:57:16;;;;;;;0.30;0.20;;;;;;;14.15;71.72;101724.66;10391340;28;20044;-82
2023/04/27 18:02:17;;;;;;;0.60;0.38;;;;;;;13.49;65.74;101736.78;10385347;28;20042;-81
2023/04/27 18:07:19;;;;;;;0.13;0.13;;;;;;;13.70;67.26;101735.59;10356318;28;20046;-81
2023/04/27 18:12:20;;;;;;;0.20;0.20;;;;;;;13.42;68.02;101734.88;10376902;28;20117;-81
2023/04/27 18:17:23;;;;;;;0.47;0.47;;;;;;;13.48;68.97;101740.22;10361011;28;20132;-81
2023/04/27 18:22:25;;;;;;;0.20;0.20;;;;;;;13.07;68.28;101743.34;10381739;28;20046;-80
2023/04/27 18:27:26;;;;;;;0.55;0.20;;;;;;;13.10;69.62;101752.91;10359543;28;20037;-81
2023/04/27 18:32:28;;;;;;;0.00;0.00;;;;;;;12.91;70.11;101746.31;10345580;28;20137;-82
2023/04/27 18:37:30;;;;;;;0.75;0.30;;;;;;;12.86;76.06;101759.09;10375122;28;20088;-79
2023/04/27 18:42:31;;;;;;;0.10;0.10;;;;;;;12.40;78.65;101748.22;10353340;28;20093;-81
2023/04/27 18:47:33;;;;;;;0.00;0.00;;;;;;;12.05;82.15;101740.22;10355263;28;20047;-80
2023/04/27 18:52:34;;;;;;;0.00;0.00;;;;;;;12.02;82.37;101732.34;10381438;28;20046;-80
2023/04/27 18:57:36;;;;;;;0.00;0.00;;;;;;;12.08;79.64;101745.47;10377621;28;20583;-81
2023/04/27 19:02:37;;;;;;;0.10;0.10;;;;;;;12.23;79.04;101739.94;10386323;28;20125;-82
2023/04/27 19:07:39;;;;;;;1.20;0.68;;;;;;;12.31;81.38;101747.91;10396566;28;20096;-80
2023/04/27 19:12:41;;;;;;;3.10;1.25;;;;;;;12.22;80.72;101733.00;10395214;28;20053;-80
2023/04/27 19:17:42;;;;;;;2.70;0.70;;;;;;;12.19;83.96;101727.72;10373948;28;20419;-80
2023/04/27 19:22:44;;;;;;;5.25;2.00;;;;;;;11.89;86.98;101736.19;10352397;28;20096;-81
2023/04/27 19:27:45;;;;;;;2.15;1.67;;;;;;;12.32;83.56;101736.75;10375030;28;20095;-81
2023/04/27 19:32:47;;;;;;;0.98;0.57;;;;;;;12.09;85.90;101741.19;10394856;28;20048;-82
2023/04/27 19:37:49;;;;;;;4.72;1.92;;;;;;;12.08;86.04;101729.97;10367794;28;20045;-81
2023/04/27 19:42:51;;;;;;;1.98;1.55;;;;;;;11.81;90.82;101724.72;10392221;28;20096;-81
2023/04/27 19:47:53;;;;;;;6.68;1.40;;;;;;;11.75;92.96;101721.09;10375641;28;20054;-81
2023/04/27 19:52:54;;;;;;;1.50;1.00;;;;;;;11.62;93.96;101721.50;10379205;28;20623;-80
2023/04/27 19:57:56;;;;;;;1.08;0.80;;;;;;;11.78;95.32;101719.47;10398806;28;20205;-81
2023/04/27 20:02:57;;;;;;;2.05;1.85;;;;;;;11.38;97.04;101714.66;10399104;28;20065;-82
2023/04/27 20:07:59;;;;;;;2.65;0.82;;;;;;;11.47;95.23;101713.22;10385300;28;20065;-82
2023/04/27 20:13:01;;;;;;;3.25;2.00;;;;;;;11.68;93.15;101713.97;10398690;28;20064;-80
2023/04/27 20:18:02;;;;;;;1.23;1.13;;;;;;;11.88;90.67;101713.75;10367252;28;20091;-81
2023/04/27 20:23:04;;;;;;;2.60;0.90;;;;;;;12.00;91.21;101711.63;10358494;28;20045;-80
2023/04/27 20:28:06;;;;;;;0.95;0.75;;;;;;;11.75;92.28;101699.59;10378748;28;20072;-80
2023/04/27 20:33:08;;;;;;;0.43;0.38;;;;;;;11.67;94.84;101691.56;10397468;28;20073;-80
2023/04/27 20:38:11;;;;;;;1.23;0.63;;;;;;;11.73;94.50;101694.34;10384992;28;20045;-80
2023/04/27 20:43:13;;;;;;;0.73;0.30;;;;;;;11.50;92.39;101687.53;10400334;28;20120;-81
2023/04/27 20:48:15;;;;;;;1.13;0.68;;;;;;;11.84;92.23;101686.97;10386498;28;20164;-81
2023/04/27 20:53:16;;;;;;;0.75;0.47;;;;;;;11.52;96.33;101672.97;10364172;28;20500;-79
2023/04/27 20:58:18;;;;;;;0.88;0.35;;;;;;;11.32;98.16;101668.00;10393747;28;20153;-80
2023/04/27 21:03:19;;;;;;;2.42;0.55;;;;;;;11.37;97.48;101661.31;10352168;28;20060;-82
2023/04/27 21:08:21;;;;;;;1.17;0.63;;;;;;;11.18;97.07;101653.75;10360811;28;20048;-81
2023/04/27 21:13:23;;;;;;;2.38;1.88;;;;;;;11.17;98.41;101657.16;10366953;28;20454;-80
2023/04/27 21:18:24;;;;;;;0.20;0.20;;;;;;;11.16;97.42;101640.81;10348502;28;20471;-81
2023/04/27 21:23:34;;;;;;;2.15;0.47;;;;;;;11.15;97.31;101635.56;10352866;28;20552;-81
2023/04/27 21:28:35;;;;;;;0.65;0.38;;;;;;;11.13;99.17;101632.94;10346837;28;20046;-81
2023/04/27 21:33:37;;;;;;;2.55;1.08;;;;;;;11.21;99.22;101618.63;10368969;28;20076;-80
2023/04/27 21:38:38;;;;;;;0.10;0.10;;;;;;;10.93;99.28;101620.25;10350089;28;20163;-80
2023/04/27 21:43:40;;;;;;;0.50;0.45;;;;;;;10.94;100.00;101603.06;10351023;28;20467;-80
2023/04/27 21:48:42;;;;;;;0.50;0.50;;;;;;;10.94;100.00;101592.75;10375630;28;20096;-82
2023/04/27 21:53:44;;;;;;;1.13;0.55;;;;;;;10.65;100.00;101589.13;10334881;28;20053;-81
2023/04/27 21:58:45;;;;;;;0.22;0.22;;;;;;;10.76;100.00;101588.66;10379669;28;20312;-80
2023/04/27 22:03:48;;;;;;;1.00;0.40;;;;;;;10.81;100.00;101567.34;10358446;28;20420;-81
2023/04/27 22:08:50;;;;;;;1.40;1.17;;;;;;;10.79;100.00;101555.28;10360228;28;20061;-81
2023/04/27 22:13:51;;;;;;;1.15;0.50;;;;;;;10.76;100.00;101541.41;10369289;28;20118;-81
2023/04/27 22:18:53;;;;;;;1.95;0.55;;;;;;;10.75;100.00;101545.72;10347233;28;20145;-81
2023/04/27 22:23:54;;;;;;;0.40;0.30;;;;;;;10.61;100.00;101539.19;10375913;28;20121;-81
2023/04/27 22:28:56;;;;;;;0.28;0.28;;;;;;;10.65;100.00;101538.47;10390874;28;20080;-81
2023/04/27 22:33:57;;;;;;;0.38;0.38;;;;;;;10.91;100.00;101533.31;10375016;28;20062;-82
2023/04/27 22:38:59;;;;;;;0.25;0.10;;;;;;;10.83;99.05;101527.06;10358587;28;20129;-81
2023/04/27 22:44:01;;;;;;;0.38;0.10;;;;;;;10.82;98.88;101527.88;10368595;28;20062;-81
2023/04/27 22:49:03;;;;;;;0.93;0.65;;;;;;;10.60;98.78;101527.13;10354972;28;20062;-80
2023/04/27 22:54:04;;;;;;;0.40;0.28;;;;;;;10.71;97.82;101523.22;10354167;28;20064;-80
2023/04/27 22:59:06;;;;;;;0.63;0.30;;;;;;;10.81;96.70;101523.53;10373720;28;20113;-81
2023/04/27 23:04:08;;;;;;;0.32;0.32;;;;;;;10.87;96.55;101513.44;10380835;28;20053;-81
2023/04/27 23:09:09;;;;;;;1.25;0.88;;;;;;;10.81;97.71;101514.09;10366380;28;20054;-81